sensor_id;sensor_type;location;lat;lon;timestamp;pressure;altitude;pressure_sealevel;temperature;humidity
15066;BME280;7632;64.944;20.038;2023-09-19T00:00:56;98636.31;;;10.85;100.00
15066;BME280;7632;64.944;20.038;2023-09-19T00:03:23;98619.69;;;10.63;100.00
15066;BME280;7632;64.944;20.038;2023-09-19T00:05:52;98630.78;;;10.65;100.00
15066;BME280;7632;64.944;20.038;2023-09-19T00:08:19;98632.31;;;10.74;100.00
15066;BME280;7632;64.944;20.038;2023-09-19T00:10:49;98626.38;;;10.70;100.00
15066;BME280;7632;64.944;20.038;2023-09-19T00:13:16;98627.25;;;10.69;100.00
15066;BME280;7632;64.944;20.038;2023-09-19T00:15:45;98602.66;;;10.59;100.00
15066;BME280;7632;64.944;20.038;2023-09-19T00:18:14;98616.31;;;10.61;100.00
15066;BME280;7632;64.944;20.038;2023-09-19T00:20:41;98607.81;;;10.59;100.00
15066;BME280;7632;64.944;20.038;2023-09-19T00:23:09;98582.97;;;10.58;100.00
15066;BME280;7632;64.944;20.038;2023-09-19T00:25:37;98579.88;;;10.46;100.00
15066;BME280;7632;64.944;20.038;2023-09-19T00:28:04;98599.47;;;10.48;100.00
15066;BME280;7632;64.944;20.038;2023-09-19T00:30:32;98595.25;;;10.47;100.00
15066;BME280;7632;64.944;20.038;2023-09-19T00:32:59;98585.56;;;10.58;100.00
15066;BME280;7632;64.944;20.038;2023-09-19T00:35:28;98586.22;;;10.68;100.00
15066;BME280;7632;64.944;20.038;2023-09-19T00:37:56;98590.53;;;10.64;100.00
15066;BME280;7632;64.944;20.038;2023-09-19T00:40:24;98588.16;;;10.57;100.00
15066;BME280;7632;64.944;20.038;2023-09-19T00:42:51;98580.59;;;10.51;100.00
15066;BME280;7632;64.944;20.038;2023-09-19T00:45:18;98572.69;;;10.60;100.00
15066;BME280;7632;64.944;20.038;2023-09-19T00:47:48;98572.66;;;10.61;100.00
15066;BME280;7632;64.944;20.038;2023-09-19T00:50:17;98565.91;;;10.57;100.00
15066;BME280;7632;64.944;20.038;2023-09-19T00:52:46;98570.09;;;10.61;100.00
15066;BME280;7632;64.944;20.038;2023-09-19T00:55:15;98575.28;;;10.58;100.00
15066;BME280;7632;64.944;20.038;2023-09-19T00:57:46;98564.25;;;10.55;100.00
15066;BME280;7632;64.944;20.038;2023-09-19T01:00:15;98569.38;;;10.55;100.00
15066;BME280;7632;64.944;20.038;2023-09-19T01:02:44;98564.03;;;10.64;100.00
15066;BME280;7632;64.944;20.038;2023-09-19T01:05:11;98541.09;;;10.56;100.00
15066;BME280;7632;64.944;20.038;2023-09-19T01:07:38;98551.97;;;10.67;100.00
15066;BME280;7632;64.944;20.038;2023-09-19T01:10:08;98548.63;;;10.62;100.00
15066;BME280;7632;64.944;20.038;2023-09-19T01:12:47;98550.50;;;10.57;100.00
15066;BME280;7632;64.944;20.038;2023-09-19T01:15:21;98539.31;;;10.58;100.00
15066;BME280;7632;64.944;20.038;2023-09-19T01:17:54;98539.31;;;10.58;100.00
15066;BME280;7632;64.944;20.038;2023-09-19T01:20:37;98524.50;;;10.69;100.00
15066;BME280;7632;64.944;20.038;2023-09-19T01:23:13;98498.38;;;10.52;100.00
15066;BME280;7632;64.944;20.038;2023-09-19T01:26:11;98510.75;;;10.72;100.00
15066;BME280;7632;64.944;20.038;2023-09-19T01:28:52;98506.22;;;10.81;100.00
15066;BME280;7632;64.944;20.038;2023-09-19T01:31:24;98501.16;;;10.78;100.00
15066;BME280;7632;64.944;20.038;2023-09-19T01:33:57;98490.97;;;10.75;100.00
15066;BME280;7632;64.944;20.038;2023-09-19T01:36:25;98484.78;;;10.82;100.00
15066;BME280;7632;64.944;20.038;2023-09-19T01:38:53;98479.47;;;10.90;100.00
15066;BME280;7632;64.944;20.038;2023-09-19T01:41:26;98440.81;;;10.61;100.00
15066;BME280;7632;64.944;20.038;2023-09-19T01:43:59;98466.88;;;10.79;100.00
15066;BME280;7632;64.944;20.038;2023-09-19T01:46:34;98456.59;;;10.79;100.00
15066;BME280;7632;64.944;20.038;2023-09-19T01:49:12;98439.91;;;10.63;100.00
15066;BME280;7632;64.944;20.038;2023-09-19T01:51:48;98439.81;;;10.66;100.00
15066;BME280;7632;64.944;20.038;2023-09-19T01:54:26;98436.44;;;10.64;100.00
15066;BME280;7632;64.944;20.038;2023-09-19T01:57:01;98421.88;;;10.65;100.00
15066;BME280;7632;64.944;20.038;2023-09-19T01:59:35;98386.50;;;10.42;100.00
15066;BME280;7632;64.944;20.038;2023-09-19T02:02:07;98403.31;;;10.55;100.00
15066;BME280;7632;64.944;20.038;2023-09-19T02:04:35;98388.69;;;10.57;100.00
15066;BME280;7632;64.944;20.038;2023-09-19T02:07:02;98378.59;;;10.51;100.00
15066;BME280;7632;64.944;20.038;2023-09-19T02:09:31;98380.50;;;10.43;100.00
15066;BME280;7632;64.944;20.038;2023-09-19T02:12:00;98379.84;;;10.35;100.00
15066;BME280;7632;64.944;20.038;2023-09-19T02:14:29;98378.97;;;10.36;100.00
15066;BME280;7632;64.944;20.038;2023-09-19T02:16:56;98370.47;;;10.34;100.00
15066;BME280;7632;64.944;20.038;2023-09-19T02:19:31;98374.06;;;10.27;100.00
15066;BME280;7632;64.944;20.038;2023-09-19T02:21:59;98361.88;;;10.35;100.00
15066;BME280;7632;64.944;20.038;2023-09-19T02:24:28;98352.97;;;10.48;100.00
15066;BME280;7632;64.944;20.038;2023-09-19T02:26:55;98331.78;;;10.40;100.00
15066;BME280;7632;64.944;20.038;2023-09-19T02:29:22;98337.72;;;10.42;100.00
15066;BME280;7632;64.944;20.038;2023-09-19T02:31:50;98346.22;;;10.44;100.00
15066;BME280;7632;64.944;20.038;2023-09-19T02:34:16;98331.34;;;10.26;100.00
15066;BME280;7632;64.944;20.038;2023-09-19T02:36:45;98344.03;;;10.30;100.00
15066;BME280;7632;64.944;20.038;2023-09-19T02:39:12;98326.50;;;10.46;100.00
15066;BME280;7632;64.944;20.038;2023-09-19T02:41:38;98293.69;;;10.25;100.00
15066;BME280;7632;64.944;20.038;2023-09-19T02:44:07;98293.44;;;10.34;100.00
15066;BME280;7632;64.944;20.038;2023-09-19T02:46:33;98278.41;;;10.20;100.00
15066;BME280;7632;64.944;20.038;2023-09-19T02:49:01;98293.53;;;10.31;100.00
15066;BME280;7632;64.944;20.038;2023-09-19T02:51:30;98286.97;;;10.21;100.00
15066;BME280;7632;64.944;20.038;2023-09-19T02:53:59;98290.44;;;10.20;100.00
15066;BME280;7632;64.944;20.038;2023-09-19T02:56:25;98270.06;;;10.14;100.00
15066;BME280;7632;64.944;20.038;2023-09-19T02:58:52;98280.22;;;10.17;100.00
15066;BME280;7632;64.944;20.038;2023-09-19T03:01:20;98258.09;;;10.13;100.00
15066;BME280;7632;64.944;20.038;2023-09-19T03:03:47;98276.19;;;10.39;100.00
15066;BME280;7632;64.944;20.038;2023-09-19T03:06:14;98262.63;;;10.34;100.00
15066;BME280;7632;64.944;20.038;2023-09-19T03:08:41;98272.84;;;10.37;100.00
15066;BME280;7632;64.944;20.038;2023-09-19T03:11:09;98245.91;;;10.21;100.00
15066;BME280;7632;64.944;20.038;2023-09-19T03:13:38;98267.97;;;10.28;100.00
15066;BME280;7632;64.944;20.038;2023-09-19T03:16:05;98272.25;;;10.27;100.00
15066;BME280;7632;64.944;20.038;2023-09-19T03:18:32;98263.81;;;10.24;100.00
15066;BME280;7632;64.944;20.038;2023-09-19T03:21:00;98244.28;;;10.17;100.00
15066;BME280;7632;64.944;20.038;2023-09-19T03:23:27;98250.69;;;10.33;100.00
15066;BME280;7632;64.944;20.038;2023-09-19T03:25:55;98250.19;;;10.20;100.00
15066;BME280;7632;64.944;20.038;2023-09-19T03:28:24;98246.53;;;10.29;100.00
15066;BME280;7632;64.944;20.038;2023-09-19T03:30:58;98241.50;;;10.24;100.00
15066;BME280;7632;64.944;20.038;2023-09-19T03:33:25;98239.91;;;10.22;100.00
15066;BME280;7632;64.944;20.038;2023-09-19T03:35:52;98224.19;;;10.32;100.00
15066;BME280;7632;64.944;20.038;2023-09-19T03:38:20;98223.34;;;10.32;100.00
15066;BME280;7632;64.944;20.038;2023-09-19T03:40:47;98195.31;;;10.24;100.00
15066;BME280;7632;64.944;20.038;2023-09-19T03:43:16;98222.16;;;10.44;100.00
15066;BME280;7632;64.944;20.038;2023-09-19T03:45:45;98210.50;;;10.32;100.00
15066;BME280;7632;64.944;20.038;2023-09-19T03:48:14;98213.44;;;10.20;100.00
15066;BME280;7632;64.944;20.038;2023-09-19T03:50:40;98193.13;;;10.11;100.00
15066;BME280;7632;64.944;20.038;2023-09-19T03:53:09;98201.41;;;10.22;100.00
15066;BME280;7632;64.944;20.038;2023-09-19T03:55:36;98182.75;;;10.15;100.00
15066;BME280;7632;64.944;20.038;2023-09-19T03:58:04;98175.97;;;10.13;100.00
15066;BME280;7632;64.944;20.038;2023-09-19T04:00:30;98179.09;;;10.24;100.00
15066;BME280;7632;64.944;20.038;2023-09-19T04:02:58;98174.00;;;10.22;100.00
15066;BME280;7632;64.944;20.038;2023-09-19T04:05:27;98159.66;;;10.15;100.00
15066;BME280;7632;64.944;20.038;2023-09-19T04:07:54;98171.41;;;10.22;100.00
15066;BME280;7632;64.944;20.038;2023-09-19T04:10:21;98150.56;;;10.04;100.00
15066;BME280;7632;64.944;20.038;2023-09-19T04:12:51;98164.69;;;10.20;100.00
15066;BME280;7632;64.944;20.038;2023-09-19T04:15:19;98148.44;;;10.19;100.00
15066;BME280;7632;64.944;20.038;2023-09-19T04:17:48;98159.88;;;10.37;100.00
15066;BME280;7632;64.944;20.038;2023-09-19T04:20:17;98139.69;;;10.25;100.00
15066;BME280;7632;64.944;20.038;2023-09-19T04:22:45;98142.94;;;10.31;100.00
15066;BME280;7632;64.944;20.038;2023-09-19T04:25:11;98140.56;;;10.25;100.00
15066;BME280;7632;64.944;20.038;2023-09-19T04:27:38;98130.47;;;10.19;100.00
15066;BME280;7632;64.944;20.038;2023-09-19T04:30:06;98131.69;;;10.05;100.00
15066;BME280;7632;64.944;20.038;2023-09-19T04:32:37;98122.81;;;10.18;100.00
15066;BME280;7632;64.944;20.038;2023-09-19T04:35:06;98108.41;;;10.12;100.00
15066;BME280;7632;64.944;20.038;2023-09-19T04:37:36;98112.63;;;10.15;100.00
15066;BME280;7632;64.944;20.038;2023-09-19T04:40:06;98070.28;;;9.99;100.00
15066;BME280;7632;64.944;20.038;2023-09-19T04:42:38;98074.38;;;10.06;100.00
15066;BME280;7632;64.944;20.038;2023-09-19T04:45:06;98091.34;;;10.11;100.00
15066;BME280;7632;64.944;20.038;2023-09-19T04:47:33;98087.94;;;10.11;100.00
15066;BME280;7632;64.944;20.038;2023-09-19T04:50:00;98061.00;;;9.95;100.00
15066;BME280;7632;64.944;20.038;2023-09-19T04:52:26;98078.66;;;10.05;100.00
15066;BME280;7632;64.944;20.038;2023-09-19T04:54:54;98058.09;;;10.07;100.00
15066;BME280;7632;64.944;20.038;2023-09-19T04:57:21;98078.09;;;10.25;100.00
15066;BME280;7632;64.944;20.038;2023-09-19T04:59:48;98063.63;;;10.22;100.00
15066;BME280;7632;64.944;20.038;2023-09-19T05:02:15;98064.28;;;10.29;100.00
15066;BME280;7632;64.944;20.038;2023-09-19T05:04:42;98050.06;;;10.19;100.00
15066;BME280;7632;64.944;20.038;2023-09-19T05:07:08;98033.34;;;10.04;100.00
15066;BME280;7632;64.944;20.038;2023-09-19T05:09:36;98038.19;;;10.15;100.00
15066;BME280;7632;64.944;20.038;2023-09-19T05:12:04;98033.97;;;10.14;100.00
15066;BME280;7632;64.944;20.038;2023-09-19T05:14:31;98028.00;;;10.13;100.00
15066;BME280;7632;64.944;20.038;2023-09-19T05:16:58;98007.63;;;10.07;100.00
15066;BME280;7632;64.944;20.038;2023-09-19T05:19:25;98018.28;;;10.23;100.00
15066;BME280;7632;64.944;20.038;2023-09-19T05:21:52;98013.25;;;10.20;100.00
15066;BME280;7632;64.944;20.038;2023-09-19T05:24:20;98016.50;;;10.25;100.00
15066;BME280;7632;64.944;20.038;2023-09-19T05:26:48;98012.84;;;10.32;100.00
15066;BME280;7632;64.944;20.038;2023-09-19T05:29:16;98005.06;;;10.35;100.00
15066;BME280;7632;64.944;20.038;2023-09-19T05:31:43;98001.22;;;10.22;100.00
15066;BME280;7632;64.944;20.038;2023-09-19T05:34:10;97988.09;;;10.31;100.00
15066;BME280;7632;64.944;20.038;2023-09-19T05:36:36;97980.69;;;10.22;100.00
15066;BME280;7632;64.944;20.038;2023-09-19T05:39:04;97986.31;;;10.33;100.00
15066;BME280;7632;64.944;20.038;2023-09-19T05:41:34;97981.16;;;10.33;100.00
15066;BME280;7632;64.944;20.038;2023-09-19T05:44:01;97982.03;;;10.32;100.00
15066;BME280;7632;64.944;20.038;2023-09-19T05:46:30;97985.72;;;10.25;100.00
15066;BME280;7632;64.944;20.038;2023-09-19T05:48:56;97980.28;;;10.34;100.00
15066;BME280;7632;64.944;20.038;2023-09-19T05:51:24;97971.78;;;10.32;100.00
15066;BME280;7632;64.944;20.038;2023-09-19T05:53:53;97960.03;;;10.25;100.00
15066;BME280;7632;64.944;20.038;2023-09-19T05:56:21;97967.69;;;10.26;100.00
15066;BME280;7632;64.944;20.038;2023-09-19T05:58:48;97966.63;;;10.32;100.00
15066;BME280;7632;64.944;20.038;2023-09-19T06:01:17;97951.41;;;10.27;100.00
15066;BME280;7632;64.944;20.038;2023-09-19T06:03:45;97935.41;;;10.19;100.00
15066;BME280;7632;64.944;20.038;2023-09-19T06:06:12;97954.91;;;10.25;100.00
15066;BME280;7632;64.944;20.038;2023-09-19T06:08:38;97951.16;;;10.35;100.00
15066;BME280;7632;64.944;20.038;2023-09-19T06:11:06;97950.16;;;10.39;100.00
15066;BME280;7632;64.944;20.038;2023-09-19T06:13:34;97949.25;;;10.40;100.00
15066;BME280;7632;64.944;20.038;2023-09-19T06:16:01;97942.34;;;10.42;100.00
15066;BME280;7632;64.944;20.038;2023-09-19T06:18:30;97937.13;;;10.45;100.00
15066;BME280;7632;64.944;20.038;2023-09-19T06:21:00;97942.16;;;10.48;100.00
15066;BME280;7632;64.944;20.038;2023-09-19T06:23:30;97915.09;;;10.38;100.00
15066;BME280;7632;64.944;20.038;2023-09-19T06:25:57;97937.00;;;10.48;100.00
15066;BME280;7632;64.944;20.038;2023-09-19T06:28:24;97924.75;;;10.56;100.00
15066;BME280;7632;64.944;20.038;2023-09-19T06:30:53;97934.09;;;10.59;100.00
15066;BME280;7632;64.944;20.038;2023-09-19T06:33:20;97920.59;;;10.54;100.00
15066;BME280;7632;64.944;20.038;2023-09-19T06:35:47;97894.38;;;10.44;100.00
15066;BME280;7632;64.944;20.038;2023-09-19T06:38:15;97916.97;;;10.59;100.00
15066;BME280;7632;64.944;20.038;2023-09-19T06:40:44;97910.94;;;10.60;100.00
15066;BME280;7632;64.944;20.038;2023-09-19T06:43:11;97892.28;;;10.55;100.00
15066;BME280;7632;64.944;20.038;2023-09-19T06:45:38;97872.16;;;10.43;100.00
15066;BME280;7632;64.944;20.038;2023-09-19T06:48:05;97887.25;;;10.52;100.00
15066;BME280;7632;64.944;20.038;2023-09-19T06:50:32;97897.09;;;10.64;100.00
15066;BME280;7632;64.944;20.038;2023-09-19T06:53:00;97884.25;;;10.64;100.00
15066;BME280;7632;64.944;20.038;2023-09-19T06:55:28;97866.69;;;10.52;100.00
15066;BME280;7632;64.944;20.038;2023-09-19T06:57:57;97877.53;;;10.60;100.00
15066;BME280;7632;64.944;20.038;2023-09-19T07:00:24;97873.19;;;10.62;100.00
15066;BME280;7632;64.944;20.038;2023-09-19T07:02:58;97869.97;;;10.57;100.00
15066;BME280;7632;64.944;20.038;2023-09-19T07:05:27;97864.63;;;10.63;100.00
15066;BME280;7632;64.944;20.038;2023-09-19T07:07:54;97852.34;;;10.71;100.00
15066;BME280;7632;64.944;20.038;2023-09-19T07:10:22;97838.72;;;10.69;100.00
15066;BME280;7632;64.944;20.038;2023-09-19T07:12:57;97843.63;;;10.75;100.00
15066;BME280;7632;64.944;20.038;2023-09-19T07:15:24;97826.31;;;10.80;100.00
15066;BME280;7632;64.944;20.038;2023-09-19T07:17:51;97838.16;;;10.84;100.00
15066;BME280;7632;64.944;20.038;2023-09-19T07:20:19;97832.22;;;10.84;100.00
15066;BME280;7632;64.944;20.038;2023-09-19T07:22:46;97822.66;;;10.87;100.00
15066;BME280;7632;64.944;20.038;2023-09-19T07:25:13;97824.50;;;10.84;100.00
15066;BME280;7632;64.944;20.038;2023-09-19T07:27:40;97819.94;;;10.90;100.00
15066;BME280;7632;64.944;20.038;2023-09-19T07:30:09;97828.78;;;10.83;100.00
15066;BME280;7632;64.944;20.038;2023-09-19T07:32:37;97813.38;;;10.83;100.00
15066;BME280;7632;64.944;20.038;2023-09-19T07:35:05;97819.84;;;10.93;100.00
15066;BME280;7632;64.944;20.038;2023-09-19T07:37:32;97801.53;;;10.79;100.00
15066;BME280;7632;64.944;20.038;2023-09-19T07:39:59;97817.59;;;10.84;100.00
15066;BME280;7632;64.944;20.038;2023-09-19T07:42:26;97813.22;;;10.88;100.00
15066;BME280;7632;64.944;20.038;2023-09-19T07:44:53;97800.41;;;10.86;100.00
15066;BME280;7632;64.944;20.038;2023-09-19T07:47:21;97801.97;;;10.90;100.00
15066;BME280;7632;64.944;20.038;2023-09-19T07:49:47;97800.31;;;10.89;100.00
15066;BME280;7632;64.944;20.038;2023-09-19T07:52:21;97788.56;;;10.82;100.00
15066;BME280;7632;64.944;20.038;2023-09-19T07:54:48;97791.88;;;10.86;100.00
15066;BME280;7632;64.944;20.038;2023-09-19T07:57:15;97795.25;;;10.86;100.00
15066;BME280;7632;64.944;20.038;2023-09-19T07:59:42;97787.00;;;10.78;100.00
15066;BME280;7632;64.944;20.038;2023-09-19T08:02:09;97767.69;;;10.91;100.00
15066;BME280;7632;64.944;20.038;2023-09-19T08:04:42;97764.22;;;10.92;100.00
15066;BME280;7632;64.944;20.038;2023-09-19T08:07:09;97764.44;;;10.86;100.00
15066;BME280;7632;64.944;20.038;2023-09-19T08:09:36;97758.50;;;10.86;100.00
15066;BME280;7632;64.944;20.038;2023-09-19T08:12:04;97760.84;;;10.90;100.00
15066;BME280;7632;64.944;20.038;2023-09-19T08:14:33;97737.19;;;10.82;100.00
15066;BME280;7632;64.944;20.038;2023-09-19T08:17:00;97742.09;;;10.88;100.00
15066;BME280;7632;64.944;20.038;2023-09-19T08:19:33;97728.53;;;10.85;100.00
15066;BME280;7632;64.944;20.038;2023-09-19T08:22:01;97733.28;;;10.95;100.00
15066;BME280;7632;64.944;20.038;2023-09-19T08:24:28;97717.25;;;10.89;100.00
15066;BME280;7632;64.944;20.038;2023-09-19T08:26:56;97730.88;;;11.12;100.00
15066;BME280;7632;64.944;20.038;2023-09-19T08:29:24;97720.34;;;11.18;100.00
15066;BME280;7632;64.944;20.038;2023-09-19T08:31:53;97701.59;;;11.16;100.00
15066;BME280;7632;64.944;20.038;2023-09-19T08:34:21;97713.81;;;11.11;100.00
15066;BME280;7632;64.944;20.038;2023-09-19T08:36:50;97704.84;;;11.22;100.00
15066;BME280;7632;64.944;20.038;2023-09-19T08:39:19;97690.66;;;11.11;100.00
15066;BME280;7632;64.944;20.038;2023-09-19T08:41:46;97695.50;;;11.19;100.00
15066;BME280;7632;64.944;20.038;2023-09-19T08:44:13;97683.25;;;11.26;100.00
15066;BME280;7632;64.944;20.038;2023-09-19T08:46:41;97657.25;;;11.11;100.00
15066;BME280;7632;64.944;20.038;2023-09-19T08:49:15;97658.81;;;11.15;100.00
15066;BME280;7632;64.944;20.038;2023-09-19T08:51:53;97674.75;;;11.24;100.00
15066;BME280;7632;64.944;20.038;2023-09-19T08:54:25;97668.47;;;11.31;100.00
15066;BME280;7632;64.944;20.038;2023-09-19T08:56:53;97666.31;;;11.42;100.00
15066;BME280;7632;64.944;20.038;2023-09-19T08:59:22;97664.44;;;11.45;100.00
15066;BME280;7632;64.944;20.038;2023-09-19T09:01:52;97658.25;;;11.49;100.00
15066;BME280;7632;64.944;20.038;2023-09-19T09:04:20;97653.56;;;11.59;100.00
15066;BME280;7632;64.944;20.038;2023-09-19T09:06:50;97634.94;;;11.54;100.00
15066;BME280;7632;64.944;20.038;2023-09-19T09:09:19;97609.06;;;11.57;100.00
15066;BME280;7632;64.944;20.038;2023-09-19T09:11:48;97633.28;;;11.73;100.00
15066;BME280;7632;64.944;20.038;2023-09-19T09:14:15;97632.50;;;11.71;100.00
15066;BME280;7632;64.944;20.038;2023-09-19T09:16:43;97626.59;;;11.69;100.00
15066;BME280;7632;64.944;20.038;2023-09-19T09:19:10;97629.50;;;11.60;100.00
15066;BME280;7632;64.944;20.038;2023-09-19T09:21:39;97603.56;;;11.66;100.00
15066;BME280;7632;64.944;20.038;2023-09-19T09:24:27;97619.38;;;11.77;100.00
15066;BME280;7632;64.944;20.038;2023-09-19T09:26:56;97618.72;;;11.72;100.00
15066;BME280;7632;64.944;20.038;2023-09-19T09:29:41;97616.91;;;11.74;100.00
15066;BME280;7632;64.944;20.038;2023-09-19T09:32:19;97603.56;;;11.66;100.00
15066;BME280;7632;64.944;20.038;2023-09-19T09:34:48;97594.75;;;11.71;100.00
15066;BME280;7632;64.944;20.038;2023-09-19T09:37:15;97588.50;;;11.57;100.00
15066;BME280;7632;64.944;20.038;2023-09-19T09:39:54;97569.03;;;11.51;100.00
15066;BME280;7632;64.944;20.038;2023-09-19T09:42:32;97585.50;;;11.67;100.00
15066;BME280;7632;64.944;20.038;2023-09-19T09:45:17;97556.75;;;11.58;100.00
15066;BME280;7632;64.944;20.038;2023-09-19T09:47:54;97560.81;;;11.62;100.00
15066;BME280;7632;64.944;20.038;2023-09-19T09:50:25;97566.13;;;11.59;100.00
15066;BME280;7632;64.944;20.038;2023-09-19T09:52:55;97560.34;;;11.54;100.00
15066;BME280;7632;64.944;20.038;2023-09-19T09:55:59;97544.53;;;11.43;100.00
15066;BME280;7632;64.944;20.038;2023-09-19T09:58:28;97553.03;;;11.45;100.00
15066;BME280;7632;64.944;20.038;2023-09-19T10:00:57;97548.13;;;11.39;100.00
15066;BME280;7632;64.944;20.038;2023-09-19T10:03:34;97545.66;;;11.37;100.00
15066;BME280;7632;64.944;20.038;2023-09-19T10:06:06;97541.19;;;11.41;100.00
15066;BME280;7632;64.944;20.038;2023-09-19T10:09:00;97535.78;;;11.47;100.00
15066;BME280;7632;64.944;20.038;2023-09-19T10:11:42;97529.38;;;11.37;100.00
15066;BME280;7632;64.944;20.038;2023-09-19T10:14:12;97499.28;;;11.39;100.00
15066;BME280;7632;64.944;20.038;2023-09-19T10:16:45;97511.13;;;11.43;100.00
15066;BME280;7632;64.944;20.038;2023-09-19T10:19:16;97506.63;;;11.48;100.00
15066;BME280;7632;64.944;20.038;2023-09-19T10:21:43;97475.38;;;11.37;100.00
15066;BME280;7632;64.944;20.038;2023-09-19T10:24:11;97485.47;;;11.41;100.00
15066;BME280;7632;64.944;20.038;2023-09-19T10:26:42;97471.69;;;11.42;100.00
15066;BME280;7632;64.944;20.038;2023-09-19T10:29:13;97475.31;;;11.38;100.00
15066;BME280;7632;64.944;20.038;2023-09-19T10:31:42;97450.88;;;11.30;100.00
15066;BME280;7632;64.944;20.038;2023-09-19T10:34:14;97458.66;;;11.47;100.00
15066;BME280;7632;64.944;20.038;2023-09-19T10:36:44;97453.78;;;11.41;100.00
15066;BME280;7632;64.944;20.038;2023-09-19T10:39:14;97450.44;;;11.39;100.00
15066;BME280;7632;64.944;20.038;2023-09-19T10:41:49;97435.28;;;11.33;100.00
15066;BME280;7632;64.944;20.038;2023-09-19T10:44:21;97433.38;;;11.38;100.00
15066;BME280;7632;64.944;20.038;2023-09-19T10:46:50;97435.78;;;11.41;100.00
15066;BME280;7632;64.944;20.038;2023-09-19T10:49:19;97426.41;;;11.40;100.00
15066;BME280;7632;64.944;20.038;2023-09-19T10:51:46;97409.47;;;11.36;100.00
15066;BME280;7632;64.944;20.038;2023-09-19T10:54:16;97404.31;;;11.36;100.00
15066;BME280;7632;64.944;20.038;2023-09-19T10:56:53;97416.34;;;11.35;100.00
15066;BME280;7632;64.944;20.038;2023-09-19T10:59:25;97415.41;;;11.36;100.00
15066;BME280;7632;64.944;20.038;2023-09-19T11:02:15;97399.94;;;11.38;100.00
15066;BME280;7632;64.944;20.038;2023-09-19T11:04:42;97368.31;;;11.17;100.00
15066;BME280;7632;64.944;20.038;2023-09-19T11:07:12;97380.06;;;11.23;100.00
15066;BME280;7632;64.944;20.038;2023-09-19T11:09:47;97386.53;;;11.31;100.00
15066;BME280;7632;64.944;20.038;2023-09-19T11:12:50;97377.38;;;11.26;100.00
15066;BME280;7632;64.944;20.038;2023-09-19T11:18:55;97375.84;;;11.22;100.00
15066;BME280;7632;64.944;20.038;2023-09-19T11:21:53;97358.88;;;11.17;100.00
15066;BME280;7632;64.944;20.038;2023-09-19T11:24:30;97357.75;;;11.23;100.00
15066;BME280;7632;64.944;20.038;2023-09-19T11:27:13;97355.41;;;11.18;100.00
15066;BME280;7632;64.944;20.038;2023-09-19T11:29:42;97358.59;;;11.24;100.00
15066;BME280;7632;64.944;20.038;2023-09-19T11:32:09;97346.38;;;11.29;100.00
15066;BME280;7632;64.944;20.038;2023-09-19T11:34:57;97338.44;;;11.14;100.00
15066;BME280;7632;64.944;20.038;2023-09-19T11:37:59;97325.00;;;11.09;100.00
15066;BME280;7632;64.944;20.038;2023-09-19T11:40:35;97329.84;;;11.15;100.00
15066;BME280;7632;64.944;20.038;2023-09-19T11:43:32;97305.19;;;11.11;100.00
15066;BME280;7632;64.944;20.038;2023-09-19T11:46:06;97311.56;;;11.22;100.00
15066;BME280;7632;64.944;20.038;2023-09-19T11:48:34;97291.22;;;11.17;100.00
15066;BME280;7632;64.944;20.038;2023-09-19T11:51:11;97281.63;;;11.20;100.00
15066;BME280;7632;64.944;20.038;2023-09-19T11:53:45;97302.88;;;11.24;100.00
15066;BME280;7632;64.944;20.038;2023-09-19T11:56:15;97290.09;;;11.23;100.00
15066;BME280;7632;64.944;20.038;2023-09-19T11:58:43;97281.63;;;11.20;100.00
15066;BME280;7632;64.944;20.038;2023-09-19T12:01:13;97291.63;;;11.27;100.00
15066;BME280;7632;64.944;20.038;2023-09-19T12:03:46;97283.16;;;11.25;100.00
15066;BME280;7632;64.944;20.038;2023-09-19T12:06:16;97261.34;;;11.14;100.00
15066;BME280;7632;64.944;20.038;2023-09-19T12:08:43;97271.13;;;11.25;100.00
15066;BME280;7632;64.944;20.038;2023-09-19T12:11:13;97265.50;;;11.36;100.00
15066;BME280;7632;64.944;20.038;2023-09-19T12:13:42;97237.81;;;11.24;100.00
15066;BME280;7632;64.944;20.038;2023-09-19T12:16:14;97249.53;;;11.29;100.00
15066;BME280;7632;64.944;20.038;2023-09-19T12:18:42;97239.91;;;11.33;100.00
15066;BME280;7632;64.944;20.038;2023-09-19T12:21:26;97234.78;;;11.33;100.00
15066;BME280;7632;64.944;20.038;2023-09-19T12:24:04;97210.47;;;11.40;100.00
15066;BME280;7632;64.944;20.038;2023-09-19T12:26:39;97208.34;;;11.48;100.00
15066;BME280;7632;64.944;20.038;2023-09-19T12:29:14;97200.84;;;11.43;100.00
15066;BME280;7632;64.944;20.038;2023-09-19T12:31:52;97190.28;;;11.49;100.00
15066;BME280;7632;64.944;20.038;2023-09-19T12:34:24;97192.09;;;11.47;100.00
15066;BME280;7632;64.944;20.038;2023-09-19T12:37:07;97189.28;;;11.52;100.00
15066;BME280;7632;64.944;20.038;2023-09-19T12:39:38;97176.50;;;11.50;100.00
15066;BME280;7632;64.944;20.038;2023-09-19T12:42:15;97173.88;;;11.52;100.00
15066;BME280;7632;64.944;20.038;2023-09-19T12:44:44;97162.38;;;11.42;100.00
15066;BME280;7632;64.944;20.038;2023-09-19T12:47:14;97153.72;;;11.43;100.00
15066;BME280;7632;64.944;20.038;2023-09-19T12:50:10;97161.44;;;11.43;100.00
15066;BME280;7632;64.944;20.038;2023-09-19T12:52:45;97152.53;;;11.50;100.00
15066;BME280;7632;64.944;20.038;2023-09-19T12:55:23;97149.72;;;11.37;100.00
15066;BME280;7632;64.944;20.038;2023-09-19T12:58:07;97124.47;;;11.28;100.00
15066;BME280;7632;64.944;20.038;2023-09-19T13:00:36;97139.53;;;11.36;100.00
15066;BME280;7632;64.944;20.038;2023-09-19T13:03:11;97133.47;;;11.37;100.00
15066;BME280;7632;64.944;20.038;2023-09-19T13:05:54;97129.84;;;11.41;100.00
15066;BME280;7632;64.944;20.038;2023-09-19T13:08:25;97124.41;;;11.47;100.00
15066;BME280;7632;64.944;20.038;2023-09-19T13:11:03;97096.94;;;11.30;100.00